createdAt,value
2018-07-16T00:00:19.425Z,99.90
2018-07-16T00:02:46.880Z,99.90
2018-07-16T00:05:14.165Z,99.90
2018-07-16T00:10:08.777Z,99.90
2018-07-16T00:12:36.070Z,99.90
2018-07-16T00:15:03.370Z,99.90
2018-07-16T00:17:30.656Z,99.90
2018-07-16T00:19:57.918Z,99.90
2018-07-16T00:22:25.205Z,99.90
2018-07-16T00:24:52.433Z,99.90
2018-07-16T00:27:19.708Z,99.90
2018-07-16T00:29:46.947Z,99.90
2018-07-16T00:32:14.254Z,99.90
2018-07-16T00:34:41.534Z,99.90
2018-07-16T00:37:08.793Z,99.90
2018-07-16T00:39:36.026Z,99.90
2018-07-16T00:42:03.307Z,99.90
2018-07-16T00:44:30.601Z,99.90
2018-07-16T00:46:57.846Z,99.90
2018-07-16T00:49:25.104Z,99.90
2018-07-16T00:51:52.365Z,99.90
2018-07-16T00:54:19.597Z,99.90
2018-07-16T00:56:46.861Z,99.90
2018-07-16T00:59:14.113Z,99.90
2018-07-16T01:01:41.372Z,99.90
2018-07-16T01:04:08.634Z,99.90
2018-07-16T01:06:35.906Z,99.90
2018-07-16T01:09:04.055Z,99.90
2018-07-16T01:11:31.332Z,99.90
2018-07-16T01:13:58.573Z,99.90
2018-07-16T01:16:25.808Z,99.90
2018-07-16T01:18:53.055Z,99.90
2018-07-16T01:21:20.312Z,99.90
2018-07-16T01:23:47.558Z,99.90
2018-07-16T01:26:15.617Z,99.90
2018-07-16T01:28:42.925Z,99.90
2018-07-16T01:31:10.154Z,99.90
2018-07-16T01:33:37.512Z,99.90
2018-07-16T01:36:04.773Z,99.90
2018-07-16T01:38:32.257Z,99.90
2018-07-16T01:40:59.500Z,99.90
2018-07-16T01:43:26.770Z,99.90
2018-07-16T01:45:53.999Z,99.90
2018-07-16T01:48:21.233Z,99.90
2018-07-16T01:50:48.486Z,99.90
2018-07-16T01:53:15.747Z,99.90
2018-07-16T01:55:42.997Z,99.90
2018-07-16T01:58:10.224Z,99.90
2018-07-16T02:00:49.205Z,99.90
2018-07-16T02:03:16.449Z,99.90
2018-07-16T02:05:43.658Z,99.90
2018-07-16T02:08:10.958Z,99.90
2018-07-16T02:10:38.166Z,99.90
2018-07-16T02:13:05.397Z,99.90
2018-07-16T02:15:32.617Z,99.90
2018-07-16T02:17:59.832Z,99.90
2018-07-16T02:20:27.046Z,99.90
2018-07-16T02:22:54.256Z,99.90
2018-07-16T02:25:21.466Z,99.90
2018-07-16T02:27:48.701Z,99.90
2018-07-16T02:30:15.927Z,99.90
2018-07-16T02:32:43.137Z,99.90
2018-07-16T02:35:10.400Z,99.90
2018-07-16T02:37:37.611Z,99.90
2018-07-16T02:40:04.882Z,99.90
2018-07-16T02:42:32.098Z,99.90
2018-07-16T02:44:59.326Z,99.90
2018-07-16T02:47:26.530Z,99.90
2018-07-16T02:49:53.765Z,99.90
2018-07-16T02:52:20.989Z,99.90
2018-07-16T02:54:48.193Z,99.90
2018-07-16T02:57:15.430Z,99.90
2018-07-16T02:59:42.665Z,99.90
2018-07-16T03:02:10.225Z,99.90
2018-07-16T03:04:37.495Z,99.90
2018-07-16T03:09:32.205Z,99.90
2018-07-16T03:12:01.516Z,99.90
2018-07-16T03:14:28.786Z,99.90
2018-07-16T03:16:57.001Z,99.90
2018-07-16T03:19:24.281Z,99.90
2018-07-16T03:21:51.531Z,99.90
2018-07-16T03:24:18.853Z,99.90
2018-07-16T03:26:46.141Z,99.90
2018-07-16T03:29:13.353Z,99.90
2018-07-16T03:31:40.609Z,99.90
2018-07-16T03:34:07.872Z,99.90
2018-07-16T03:36:35.112Z,99.90
2018-07-16T03:39:03.111Z,99.90
2018-07-16T03:41:30.521Z,99.90
2018-07-16T03:43:57.818Z,99.90
2018-07-16T03:46:25.121Z,99.90
2018-07-16T03:48:52.338Z,99.90
2018-07-16T03:51:19.580Z,99.90
2018-07-16T03:53:46.813Z,99.90
2018-07-16T03:56:14.080Z,99.90
2018-07-16T03:58:41.332Z,99.90
2018-07-16T04:01:08.590Z,99.90
2018-07-16T04:03:35.812Z,99.90
2018-07-16T04:06:03.077Z,99.90
2018-07-16T04:08:30.305Z,99.90
2018-07-16T04:10:57.588Z,99.90
2018-07-16T04:13:24.833Z,99.90
2018-07-16T04:15:52.085Z,99.90
2018-07-16T04:18:20.225Z,99.90
2018-07-16T04:20:48.210Z,99.90
2018-07-16T04:23:15.874Z,99.90
2018-07-16T04:25:43.118Z,99.90
2018-07-16T04:28:10.365Z,99.90
2018-07-16T04:30:37.607Z,99.90
2018-07-16T04:33:04.857Z,99.90
2018-07-16T04:35:32.147Z,99.90
2018-07-16T04:37:59.383Z,99.90
2018-07-16T04:40:26.654Z,99.90
2018-07-16T04:42:54.097Z,99.90
2018-07-16T04:45:21.569Z,99.90
2018-07-16T04:47:48.801Z,99.90
2018-07-16T04:50:16.058Z,99.90
2018-07-16T04:52:43.304Z,99.90
2018-07-16T04:55:10.559Z,99.90
2018-07-16T04:57:37.795Z,99.90
2018-07-16T05:00:05.264Z,99.90
2018-07-16T05:02:32.501Z,99.90
2018-07-16T05:04:59.732Z,99.90
2018-07-16T05:07:26.953Z,99.90
2018-07-16T05:09:54.169Z,99.90
2018-07-16T05:12:21.402Z,99.90
2018-07-16T05:14:48.625Z,99.90
2018-07-16T05:17:15.848Z,99.90
2018-07-16T05:19:43.068Z,99.90
2018-07-16T05:22:10.587Z,99.90
2018-07-16T05:24:37.817Z,99.90
2018-07-16T05:27:05.202Z,99.90
2018-07-16T05:29:32.417Z,99.90
2018-07-16T05:31:59.677Z,99.90
2018-07-16T05:34:26.861Z,99.90
2018-07-16T05:36:54.078Z,99.90
2018-07-16T05:39:21.320Z,99.90
2018-07-16T05:41:48.561Z,99.90
2018-07-16T05:44:15.797Z,99.90
2018-07-16T05:46:43.037Z,99.90
2018-07-16T05:49:10.266Z,99.90
2018-07-16T05:51:37.480Z,99.90
2018-07-16T05:54:04.774Z,99.90
2018-07-16T05:56:32.014Z,99.90
2018-07-16T05:58:59.264Z,99.90
2018-07-16T06:01:26.530Z,99.90
2018-07-16T06:03:53.943Z,99.90
2018-07-16T06:06:21.179Z,99.90
2018-07-16T06:08:48.484Z,99.90
2018-07-16T06:11:15.742Z,99.90
2018-07-16T06:13:42.991Z,99.90
2018-07-16T06:16:10.261Z,99.90
2018-07-16T06:18:37.517Z,99.90
2018-07-16T06:21:04.921Z,99.90
2018-07-16T06:23:32.197Z,99.90
2018-07-16T06:25:59.479Z,99.90
2018-07-16T06:28:26.734Z,99.90
2018-07-16T06:30:54.011Z,99.90
2018-07-16T06:33:21.253Z,99.90
2018-07-16T06:35:48.475Z,99.90
2018-07-16T06:38:15.850Z,99.90
2018-07-16T06:40:43.237Z,99.90
2018-07-16T06:43:10.480Z,99.90
2018-07-16T06:45:37.842Z,99.90
2018-07-16T06:48:05.316Z,99.90
2018-07-16T06:50:32.573Z,99.90
2018-07-16T06:52:59.808Z,99.90
2018-07-16T06:55:27.082Z,99.90
2018-07-16T06:57:54.325Z,99.90
2018-07-16T07:00:21.563Z,99.90
2018-07-16T07:02:48.805Z,99.90
2018-07-16T07:05:16.051Z,99.90
2018-07-16T07:07:43.283Z,99.90
2018-07-16T07:10:10.639Z,99.90
2018-07-16T07:12:37.801Z,99.90
2018-07-16T07:15:05.098Z,99.90
2018-07-16T07:17:32.342Z,99.90
2018-07-16T07:19:59.597Z,99.90
2018-07-16T07:22:26.852Z,99.90
2018-07-16T07:24:54.125Z,99.90
2018-07-16T07:27:21.378Z,99.90
2018-07-16T07:29:48.629Z,99.90
2018-07-16T07:32:15.911Z,99.90
2018-07-16T07:34:43.156Z,99.90
2018-07-16T07:37:10.423Z,99.90
2018-07-16T07:39:37.670Z,99.90
2018-07-16T07:42:04.930Z,99.90
2018-07-16T07:44:32.177Z,99.90
2018-07-16T07:46:59.420Z,99.90
2018-07-16T07:49:26.673Z,99.90
2018-07-16T07:51:53.957Z,99.90
2018-07-16T07:54:21.486Z,99.90
2018-07-16T07:56:48.496Z,99.90
2018-07-16T07:59:15.733Z,99.90
2018-07-16T08:01:42.950Z,99.90
2018-07-16T08:04:10.174Z,99.90
2018-07-16T08:06:37.400Z,99.90
2018-07-16T08:09:06.267Z,99.90
2018-07-16T08:11:33.505Z,99.90
2018-07-16T08:14:00.749Z,99.90
2018-07-16T08:16:27.969Z,99.90
2018-07-16T08:18:55.185Z,99.90
2018-07-16T08:21:22.422Z,99.90
2018-07-16T08:23:49.650Z,99.90
2018-07-16T08:26:16.881Z,99.90
2018-07-16T08:28:44.114Z,99.90
2018-07-16T08:31:11.357Z,99.90
2018-07-16T08:33:38.674Z,99.90
2018-07-16T08:36:05.890Z,99.90
2018-07-16T08:38:33.119Z,99.90
2018-07-16T08:41:00.374Z,99.90
2018-07-16T08:43:27.598Z,99.90
2018-07-16T08:45:54.826Z,99.90
2018-07-16T08:48:22.041Z,99.90
2018-07-16T08:50:49.307Z,99.90
2018-07-16T08:53:16.535Z,99.90
2018-07-16T08:55:43.776Z,99.90
2018-07-16T08:58:11.024Z,99.90
2018-07-16T09:00:38.266Z,99.90
2018-07-16T09:03:05.535Z,99.90
2018-07-16T09:05:32.797Z,99.90
2018-07-16T09:08:00.069Z,99.90
2018-07-16T09:10:27.392Z,99.90
2018-07-16T09:12:54.665Z,99.90
2018-07-16T09:15:21.920Z,99.90
2018-07-16T09:17:49.181Z,99.90
2018-07-16T09:20:16.423Z,99.90
2018-07-16T09:22:43.658Z,99.40
2018-07-16T09:25:11.578Z,99.70
2018-07-16T09:27:38.821Z,99.80
2018-07-16T09:30:06.217Z,99.90
2018-07-16T09:32:33.526Z,97.20
2018-07-16T09:35:00.726Z,96.20
2018-07-16T09:37:27.980Z,91.40
2018-07-16T09:39:55.206Z,88.30
2018-07-16T09:42:22.473Z,85.60
2018-07-16T09:44:49.717Z,83.90
2018-07-16T09:47:16.967Z,80.50
2018-07-16T09:49:44.189Z,78.20
2018-07-16T09:52:11.441Z,75.20
2018-07-16T09:54:38.676Z,71.30
2018-07-16T09:57:05.923Z,72.00
2018-07-16T09:59:33.142Z,71.70
2018-07-16T10:02:06.255Z,70.50
2018-07-16T10:04:33.462Z,69.10
2018-07-16T10:07:00.681Z,68.10
2018-07-16T10:09:27.893Z,68.90
2018-07-16T10:11:55.108Z,66.60
2018-07-16T10:14:22.494Z,65.60
2018-07-16T10:16:49.716Z,64.40
2018-07-16T10:19:16.930Z,63.50
2018-07-16T10:21:44.164Z,64.10
2018-07-16T10:24:11.386Z,67.50
2018-07-16T10:26:38.623Z,65.90
2018-07-16T10:29:06.106Z,63.80
2018-07-16T10:31:33.330Z,63.60
2018-07-16T10:34:00.613Z,60.50
2018-07-16T10:36:27.842Z,62.90
2018-07-16T10:38:55.054Z,60.40
2018-07-16T10:41:22.561Z,62.10
2018-07-16T10:43:49.807Z,59.40
2018-07-16T10:46:17.410Z,60.30
2018-07-16T10:48:44.665Z,59.10
2018-07-16T10:51:11.909Z,60.10
2018-07-16T10:53:39.160Z,58.90
2018-07-16T10:56:06.386Z,56.80
2018-07-16T10:58:33.669Z,59.20
2018-07-16T11:01:00.921Z,58.60
2018-07-16T11:03:28.154Z,59.10
2018-07-16T11:05:58.501Z,57.60
2018-07-16T11:08:25.720Z,56.80
2018-07-16T11:10:52.922Z,56.50
2018-07-16T11:13:20.140Z,58.60
2018-07-16T11:15:47.349Z,61.50
2018-07-16T11:18:14.570Z,64.70
2018-07-16T11:20:41.801Z,66.10
2018-07-16T11:23:09.103Z,66.90
2018-07-16T11:25:36.306Z,67.70
2018-07-16T11:28:03.555Z,69.40
2018-07-16T11:30:30.778Z,71.60
2018-07-16T11:32:57.993Z,72.20
2018-07-16T11:35:25.282Z,72.30
2018-07-16T11:37:52.452Z,67.50
2018-07-16T11:40:19.738Z,65.50
2018-07-16T11:42:46.942Z,66.60
2018-07-16T11:45:14.177Z,70.40
2018-07-16T11:47:41.416Z,68.80
2018-07-16T11:50:08.661Z,66.80
2018-07-16T11:52:35.878Z,65.90
2018-07-16T11:55:03.133Z,64.60
2018-07-16T11:57:30.381Z,61.60
2018-07-16T11:59:57.630Z,63.20
2018-07-16T12:02:24.871Z,64.20
2018-07-16T12:04:52.109Z,62.80
2018-07-16T12:07:19.347Z,63.00
2018-07-16T12:09:46.592Z,66.50
2018-07-16T12:12:13.875Z,63.90
2018-07-16T12:14:41.090Z,66.50
2018-07-16T12:17:08.336Z,68.60
2018-07-16T12:19:35.594Z,69.30
2018-07-16T12:22:02.869Z,72.00
2018-07-16T12:24:30.114Z,72.10
2018-07-16T12:26:57.456Z,73.00
2018-07-16T12:29:24.699Z,75.20
2018-07-16T12:31:51.945Z,75.20
2018-07-16T12:34:19.185Z,74.50
2018-07-16T12:39:13.682Z,74.60
2018-07-16T12:41:40.942Z,75.00
2018-07-16T12:44:08.165Z,74.60
2018-07-16T12:46:35.402Z,75.30
2018-07-16T12:51:29.906Z,77.50
2018-07-16T12:53:57.147Z,79.40
2018-07-16T12:56:24.392Z,77.30
2018-07-16T12:58:51.631Z,73.40
2018-07-16T13:01:18.918Z,69.50
2018-07-16T13:03:46.152Z,64.50
2018-07-16T13:06:13.938Z,62.30
2018-07-16T13:08:41.000Z,60.70
2018-07-16T13:11:08.245Z,58.40
2018-07-16T13:13:35.480Z,58.30
2018-07-16T13:16:02.822Z,56.20
2018-07-16T13:18:29.992Z,54.10
2018-07-16T13:20:57.266Z,55.20
2018-07-16T13:23:24.518Z,56.70
2018-07-16T13:25:51.757Z,55.40
2018-07-16T13:28:19.016Z,54.80
2018-07-16T13:30:46.270Z,54.50
2018-07-16T13:33:13.529Z,54.10
2018-07-16T13:35:40.764Z,52.60
2018-07-16T13:38:08.015Z,53.10
2018-07-16T13:40:35.257Z,53.70
2018-07-16T13:43:02.517Z,53.80
2018-07-16T13:45:29.782Z,54.50
2018-07-16T13:47:57.017Z,53.50
2018-07-16T13:50:24.285Z,56.40
2018-07-16T13:52:51.554Z,58.80
2018-07-16T13:55:18.790Z,59.60
2018-07-16T13:57:46.014Z,58.40
2018-07-16T14:00:13.261Z,58.20
2018-07-16T14:02:40.493Z,57.60
2018-07-16T14:05:07.693Z,55.80
2018-07-16T14:07:34.923Z,58.90
2018-07-16T14:10:02.162Z,57.10
2018-07-16T14:12:29.434Z,57.10
2018-07-16T14:14:56.648Z,56.60
2018-07-16T14:17:23.878Z,56.70
2018-07-16T14:19:51.125Z,56.80
2018-07-16T14:22:18.345Z,58.10
2018-07-16T14:24:45.565Z,56.30
2018-07-16T14:27:12.777Z,57.50
2018-07-16T14:29:39.990Z,57.60
2018-07-16T14:32:07.479Z,56.40
2018-07-16T14:34:34.934Z,57.70
2018-07-16T14:37:02.148Z,56.90
2018-07-16T14:39:29.503Z,57.80
2018-07-16T14:41:56.625Z,56.10
2018-07-16T14:44:23.841Z,56.80
2018-07-16T14:46:51.065Z,57.90
2018-07-16T14:49:18.313Z,58.60
2018-07-16T14:51:45.524Z,56.90
2018-07-16T14:54:12.752Z,56.90
2018-07-16T14:56:39.978Z,56.20
2018-07-16T14:59:07.219Z,56.40
2018-07-16T15:01:34.461Z,56.80
2018-07-16T15:04:01.805Z,56.50
2018-07-16T15:06:29.033Z,55.40
2018-07-16T15:08:56.257Z,56.40
2018-07-16T15:11:23.479Z,56.90
2018-07-16T15:13:50.795Z,58.20
2018-07-16T15:16:18.217Z,58.40
2018-07-16T15:18:45.450Z,57.10
2018-07-16T15:21:12.843Z,56.70
2018-07-16T15:23:39.890Z,56.20
2018-07-16T15:26:07.111Z,56.40
2018-07-16T15:28:34.356Z,57.00
2018-07-16T15:31:01.575Z,57.70
2018-07-16T15:33:28.792Z,57.50
2018-07-16T15:35:56.001Z,57.70
2018-07-16T15:38:23.233Z,57.60
2018-07-16T15:40:50.449Z,57.20
2018-07-16T15:43:17.667Z,57.80
2018-07-16T15:45:44.940Z,58.20
2018-07-16T15:48:12.220Z,58.00
2018-07-16T15:50:39.385Z,56.60
2018-07-16T15:53:06.685Z,55.90
2018-07-16T15:55:33.896Z,56.40
2018-07-16T15:58:01.126Z,56.30
2018-07-16T16:00:28.402Z,54.60
2018-07-16T16:02:55.715Z,56.00
2018-07-16T16:05:22.840Z,55.90
2018-07-16T16:07:50.124Z,57.80
2018-07-16T16:10:17.350Z,56.30
2018-07-16T16:12:44.573Z,56.70
2018-07-16T16:15:11.816Z,56.00
2018-07-16T16:17:39.059Z,56.80
2018-07-16T16:20:06.287Z,56.80
2018-07-16T16:25:00.757Z,57.90
2018-07-16T16:27:27.992Z,56.90
2018-07-16T16:29:55.214Z,56.90
2018-07-16T16:32:22.461Z,56.40
2018-07-16T16:34:49.671Z,55.70
2018-07-16T16:37:16.965Z,54.90
2018-07-16T16:39:44.213Z,54.80
2018-07-16T16:44:38.871Z,56.40
2018-07-16T16:47:06.172Z,59.80
2018-07-16T16:49:33.435Z,61.50
2018-07-16T16:52:00.644Z,62.40
2018-07-16T16:54:28.097Z,62.50
2018-07-16T16:56:55.377Z,64.10
2018-07-16T16:59:22.626Z,63.90
2018-07-16T17:01:49.870Z,64.20
2018-07-16T17:04:17.106Z,65.20
2018-07-16T17:06:44.477Z,65.10
2018-07-16T17:09:11.712Z,64.90
2018-07-16T17:11:38.960Z,65.00
2018-07-16T17:14:06.233Z,65.70
2018-07-16T17:16:33.482Z,65.70
2018-07-16T17:19:00.737Z,65.50
2018-07-16T17:21:27.973Z,66.40
2018-07-16T17:23:55.329Z,66.40
2018-07-16T17:26:22.597Z,67.10
2018-07-16T17:28:49.839Z,68.60
2018-07-16T17:31:17.473Z,70.10
2018-07-16T17:33:44.724Z,72.20
2018-07-16T17:36:11.966Z,73.70
2018-07-16T17:38:39.272Z,74.10
2018-07-16T17:41:06.350Z,75.30
2018-07-16T17:43:33.734Z,76.50
2018-07-16T17:46:00.979Z,77.70
2018-07-16T17:50:55.470Z,79.50
2018-07-16T17:53:22.791Z,81.00
2018-07-16T17:55:50.831Z,81.10
2018-07-16T17:58:18.102Z,82.10
2018-07-16T18:00:45.321Z,82.50
2018-07-16T18:03:12.600Z,83.10
2018-07-16T18:05:39.830Z,83.40
2018-07-16T18:08:07.066Z,83.60
2018-07-16T18:13:01.541Z,84.80
2018-07-16T18:15:28.808Z,85.20
2018-07-16T18:17:56.035Z,85.70
2018-07-16T18:20:23.283Z,86.80
2018-07-16T18:22:50.695Z,87.60
2018-07-16T18:25:18.089Z,88.60
2018-07-16T18:27:45.344Z,89.90
2018-07-16T18:30:12.708Z,90.20
2018-07-16T18:32:39.930Z,90.90
2018-07-16T18:35:07.226Z,91.60
2018-07-16T18:37:34.499Z,92.60
2018-07-16T18:40:02.317Z,93.50
2018-07-16T18:42:29.568Z,94.40
2018-07-16T18:44:56.801Z,94.80
2018-07-16T18:47:24.023Z,95.30
2018-07-16T18:49:51.268Z,95.40
2018-07-16T18:52:18.515Z,95.60
2018-07-16T18:54:45.760Z,95.80
2018-07-16T18:57:13.051Z,95.90
2018-07-16T18:59:40.277Z,96.10
2018-07-16T19:02:07.579Z,96.30
2018-07-16T19:04:34.858Z,96.80
2018-07-16T19:07:02.118Z,97.20
2018-07-16T19:09:29.390Z,97.80
2018-07-16T19:11:56.599Z,98.40
2018-07-16T19:14:23.853Z,98.90
2018-07-16T19:16:51.092Z,99.10
2018-07-16T19:19:18.322Z,99.50
2018-07-16T19:21:45.600Z,99.80
2018-07-16T19:24:12.872Z,99.90
2018-07-16T19:26:40.110Z,99.90
2018-07-16T19:29:07.360Z,99.90
2018-07-16T19:31:34.681Z,99.90
2018-07-16T19:34:01.975Z,99.90
2018-07-16T19:36:29.278Z,99.90
2018-07-16T19:38:56.633Z,99.90
2018-07-16T19:41:23.849Z,99.90
2018-07-16T19:46:18.433Z,99.90
2018-07-16T19:48:45.690Z,99.90
2018-07-16T19:51:12.962Z,99.90
2018-07-16T19:53:40.230Z,99.90
2018-07-16T19:56:07.482Z,99.90
2018-07-16T19:58:35.101Z,99.90
2018-07-16T20:01:02.385Z,99.90
2018-07-16T20:03:29.643Z,99.90
2018-07-16T20:05:56.886Z,99.90
2018-07-16T20:08:24.156Z,99.90
2018-07-16T20:10:51.376Z,99.90
2018-07-16T20:13:18.694Z,99.90
2018-07-16T20:15:46.066Z,99.90
2018-07-16T20:18:13.142Z,99.90
2018-07-16T20:20:53.573Z,99.90
2018-07-16T20:23:32.910Z,99.90
2018-07-16T20:28:27.903Z,99.90
2018-07-16T20:30:55.262Z,99.90
2018-07-16T20:33:22.825Z,99.90
2018-07-16T20:35:50.050Z,99.90
2018-07-16T20:38:17.285Z,99.90
2018-07-16T20:40:44.807Z,99.90
2018-07-16T20:43:12.087Z,99.90
2018-07-16T20:48:06.579Z,99.90
2018-07-16T20:50:33.841Z,99.90
2018-07-16T20:53:01.093Z,99.90
2018-07-16T20:55:28.693Z,99.90
2018-07-16T20:57:56.288Z,99.90
2018-07-16T21:00:23.518Z,99.90
2018-07-16T21:02:50.786Z,99.90
2018-07-16T21:05:18.073Z,99.90
2018-07-16T21:07:45.312Z,99.90
2018-07-16T21:10:12.608Z,99.90
2018-07-16T21:12:39.836Z,99.90
2018-07-16T21:15:07.085Z,99.90
2018-07-16T21:17:34.301Z,99.90
2018-07-16T21:20:01.557Z,99.90
2018-07-16T21:24:56.152Z,99.90
2018-07-16T21:27:23.422Z,99.90
2018-07-16T21:29:50.649Z,99.90
2018-07-16T21:32:18.377Z,99.90
2018-07-16T21:34:45.618Z,99.90
2018-07-16T21:37:12.829Z,99.90
2018-07-16T21:39:40.058Z,99.90
2018-07-16T21:42:07.551Z,99.90
2018-07-16T21:44:35.994Z,99.90
2018-07-16T21:47:03.222Z,99.90
2018-07-16T21:49:30.437Z,99.90
2018-07-16T21:51:57.692Z,99.90
2018-07-16T21:54:24.924Z,99.90
2018-07-16T21:56:52.130Z,99.90
2018-07-16T21:59:19.536Z,99.90
2018-07-16T22:04:13.980Z,99.90
2018-07-16T22:06:41.213Z,99.90
2018-07-16T22:09:08.633Z,99.90
2018-07-16T22:11:35.962Z,99.90
2018-07-16T22:14:03.234Z,99.90
2018-07-16T22:16:30.456Z,99.90
2018-07-16T22:18:57.689Z,99.90
2018-07-16T22:21:24.889Z,99.90
2018-07-16T22:23:52.126Z,99.90
2018-07-16T22:26:19.336Z,99.90
2018-07-16T22:28:46.579Z,99.90
2018-07-16T22:31:13.814Z,99.90
2018-07-16T22:33:41.021Z,99.90
2018-07-16T22:36:08.460Z,99.90
2018-07-16T22:38:35.670Z,99.90
2018-07-16T22:41:02.903Z,99.90
2018-07-16T22:43:30.129Z,99.90
2018-07-16T22:45:57.354Z,99.90
2018-07-16T22:48:24.593Z,99.90
2018-07-16T22:50:51.810Z,99.90
2018-07-16T22:53:19.033Z,99.90
2018-07-16T22:55:46.266Z,99.90
2018-07-16T22:58:13.492Z,99.90
2018-07-16T23:00:40.754Z,99.90
2018-07-16T23:03:07.962Z,99.90
2018-07-16T23:05:35.221Z,99.90
2018-07-16T23:08:02.429Z,99.90
2018-07-16T23:10:29.645Z,99.90
2018-07-16T23:12:56.848Z,99.90
2018-07-16T23:15:24.088Z,99.90
2018-07-16T23:17:51.325Z,99.90
2018-07-16T23:20:18.542Z,99.90
2018-07-16T23:22:53.914Z,99.90
2018-07-16T23:25:21.596Z,99.90
2018-07-16T23:27:48.863Z,99.90
2018-07-16T23:30:16.218Z,99.90
2018-07-16T23:32:43.787Z,99.90
2018-07-16T23:35:11.018Z,99.90
2018-07-16T23:37:38.445Z,99.90
2018-07-16T23:40:05.708Z,99.90
2018-07-16T23:42:32.912Z,99.90
2018-07-16T23:45:00.169Z,99.90
2018-07-16T23:47:27.581Z,99.90
2018-07-16T23:49:54.798Z,99.90
2018-07-16T23:52:22.069Z,99.90
2018-07-16T23:54:49.286Z,99.90
2018-07-16T23:57:16.565Z,99.90
2018-07-16T23:59:43.818Z,99.90
